sensor_id;sensor_type;location;lat;lon;timestamp;pressure;altitude;pressure_sealevel;temperature;humidity
23261;BME280;11799;47.740;-3.390;2023-03-01T00:01:04;102510.78;;;4.43;84.89
23261;BME280;11799;47.740;-3.390;2023-03-01T00:03:29;102516.25;;;4.34;84.03
23261;BME280;11799;47.740;-3.390;2023-03-01T00:05:55;102526.03;;;4.26;82.59
23261;BME280;11799;47.740;-3.390;2023-03-01T00:08:20;102529.69;;;4.19;82.39
23261;BME280;11799;47.740;-3.390;2023-03-01T00:10:46;102523.81;;;4.09;81.54
23261;BME280;11799;47.740;-3.390;2023-03-01T00:13:11;102530.06;;;4.04;81.48
23261;BME280;11799;47.740;-3.390;2023-03-01T00:15:40;102537.34;;;3.91;79.96
23261;BME280;11799;47.740;-3.390;2023-03-01T00:18:09;102540.09;;;3.85;80.37
23261;BME280;11799;47.740;-3.390;2023-03-01T00:20:34;102552.31;;;3.83;80.40
23261;BME280;11799;47.740;-3.390;2023-03-01T00:23:00;102543.97;;;3.67;79.17
23261;BME280;11799;47.740;-3.390;2023-03-01T00:25:25;102534.44;;;3.64;79.56
23261;BME280;11799;47.740;-3.390;2023-03-01T00:27:51;102542.28;;;3.64;80.10
23261;BME280;11799;47.740;-3.390;2023-03-01T00:30:16;102539.81;;;3.57;80.02
23261;BME280;11799;47.740;-3.390;2023-03-01T00:32:42;102542.50;;;3.54;80.15
23261;BME280;11799;47.740;-3.390;2023-03-01T00:35:07;102553.03;;;3.49;80.61
23261;BME280;11799;47.740;-3.390;2023-03-01T00:37:33;102558.25;;;3.49;81.02
23261;BME280;11799;47.740;-3.390;2023-03-01T00:39:58;102561.88;;;3.45;80.71
23261;BME280;11799;47.740;-3.390;2023-03-01T00:42:24;102563.84;;;3.33;80.42
23261;BME280;11799;47.740;-3.390;2023-03-01T00:44:50;102556.13;;;3.28;80.24
23261;BME280;11799;47.740;-3.390;2023-03-01T00:47:15;102556.09;;;3.29;80.92
23261;BME280;11799;47.740;-3.390;2023-03-01T00:49:41;102562.31;;;3.22;80.89
23261;BME280;11799;47.740;-3.390;2023-03-01T00:52:06;102563.19;;;3.21;81.08
23261;BME280;11799;47.740;-3.390;2023-03-01T00:54:32;102555.41;;;3.20;80.70
23261;BME280;11799;47.740;-3.390;2023-03-01T00:56:57;102550.38;;;3.09;80.93
23261;BME280;11799;47.740;-3.390;2023-03-01T00:59:23;102555.69;;;3.05;80.58
23261;BME280;11799;47.740;-3.390;2023-03-01T01:01:48;102547.91;;;3.02;80.72
23261;BME280;11799;47.740;-3.390;2023-03-01T01:04:14;102559.34;;;2.94;80.52
23261;BME280;11799;47.740;-3.390;2023-03-01T01:06:44;102563.00;;;2.87;79.68
23261;BME280;11799;47.740;-3.390;2023-03-01T01:09:13;102555.31;;;2.80;80.26
23261;BME280;11799;47.740;-3.390;2023-03-01T01:11:46;102567.47;;;2.81;79.65
23261;BME280;11799;47.740;-3.390;2023-03-01T01:14:13;102566.69;;;2.76;80.02
23261;BME280;11799;47.740;-3.390;2023-03-01T01:16:38;102577.31;;;2.63;79.81
23261;BME280;11799;47.740;-3.390;2023-03-01T01:19:04;102572.06;;;2.67;79.52
23261;BME280;11799;47.740;-3.390;2023-03-01T01:21:30;102565.13;;;2.64;80.37
23261;BME280;11799;47.740;-3.390;2023-03-01T01:23:56;102568.66;;;2.61;80.57
23261;BME280;11799;47.740;-3.390;2023-03-01T01:26:28;102571.41;;;2.54;80.34
23261;BME280;11799;47.740;-3.390;2023-03-01T01:28:54;102587.00;;;2.55;80.36
23261;BME280;11799;47.740;-3.390;2023-03-01T01:31:20;102578.34;;;2.53;80.16
23261;BME280;11799;47.740;-3.390;2023-03-01T01:33:50;102588.00;;;2.48;80.71
23261;BME280;11799;47.740;-3.390;2023-03-01T01:36:16;102595.09;;;2.39;80.26
23261;BME280;11799;47.740;-3.390;2023-03-01T01:38:41;102583.03;;;2.33;80.08
23261;BME280;11799;47.740;-3.390;2023-03-01T01:41:09;102596.03;;;2.35;79.90
23261;BME280;11799;47.740;-3.390;2023-03-01T01:43:39;102596.13;;;2.30;79.90
23261;BME280;11799;47.740;-3.390;2023-03-01T01:46:31;102607.53;;;2.23;79.91
23261;BME280;11799;47.740;-3.390;2023-03-01T01:49:02;102618.03;;;2.18;79.95
23261;BME280;11799;47.740;-3.390;2023-03-01T01:51:32;102607.59;;;2.18;79.47
23261;BME280;11799;47.740;-3.390;2023-03-01T01:54:08;102615.44;;;2.17;79.91
23261;BME280;11799;47.740;-3.390;2023-03-01T01:56:37;102615.53;;;2.09;79.86
23261;BME280;11799;47.740;-3.390;2023-03-01T01:59:05;102608.66;;;2.05;79.62
23261;BME280;11799;47.740;-3.390;2023-03-01T02:01:31;102613.88;;;2.05;80.01
23261;BME280;11799;47.740;-3.390;2023-03-01T02:03:57;102607.84;;;2.00;79.93
23261;BME280;11799;47.740;-3.390;2023-03-01T02:06:48;102607.91;;;1.95;80.25
23261;BME280;11799;47.740;-3.390;2023-03-01T02:09:18;102601.88;;;1.92;80.33
23261;BME280;11799;47.740;-3.390;2023-03-01T02:11:44;102597.50;;;1.94;80.06
23261;BME280;11799;47.740;-3.390;2023-03-01T02:14:10;102596.66;;;1.93;80.11
23261;BME280;11799;47.740;-3.390;2023-03-01T02:16:36;102595.88;;;1.87;80.25
23261;BME280;11799;47.740;-3.390;2023-03-01T02:19:03;102597.69;;;1.80;79.71
23261;BME280;11799;47.740;-3.390;2023-03-01T02:21:34;102584.72;;;1.77;79.61
23261;BME280;11799;47.740;-3.390;2023-03-01T02:24:18;102589.19;;;1.69;79.80
23261;BME280;11799;47.740;-3.390;2023-03-01T02:26:48;102587.47;;;1.67;79.34
23261;BME280;11799;47.740;-3.390;2023-03-01T02:29:15;102590.97;;;1.65;79.48
23261;BME280;11799;47.740;-3.390;2023-03-01T02:31:41;102592.72;;;1.65;79.72
23261;BME280;11799;47.740;-3.390;2023-03-01T02:34:09;102591.91;;;1.60;79.38
23261;BME280;11799;47.740;-3.390;2023-03-01T02:39:43;102590.19;;;1.59;79.24
23261;BME280;11799;47.740;-3.390;2023-03-01T02:42:17;102593.75;;;1.50;79.14
23261;BME280;11799;47.740;-3.390;2023-03-01T02:44:45;102592.09;;;1.45;79.18
23261;BME280;11799;47.740;-3.390;2023-03-01T02:47:11;102598.16;;;1.44;79.06
23261;BME280;11799;47.740;-3.390;2023-03-01T02:49:37;102596.47;;;1.41;79.04
23261;BME280;11799;47.740;-3.390;2023-03-01T02:57:21;102596.53;;;1.33;79.21
23261;BME280;11799;47.740;-3.390;2023-03-01T02:59:50;102585.28;;;1.31;79.47
23261;BME280;11799;47.740;-3.390;2023-03-01T03:02:24;102585.25;;;1.35;79.16
23261;BME280;11799;47.740;-3.390;2023-03-01T03:05:14;102585.34;;;1.27;79.19
23261;BME280;11799;47.740;-3.390;2023-03-01T03:07:43;102579.28;;;1.26;79.44
23261;BME280;11799;47.740;-3.390;2023-03-01T03:10:18;102577.50;;;1.30;79.41
23261;BME280;11799;47.740;-3.390;2023-03-01T03:12:52;102580.16;;;1.24;79.25
23261;BME280;11799;47.740;-3.390;2023-03-01T03:15:18;102581.88;;;1.25;79.05
23261;BME280;11799;47.740;-3.390;2023-03-01T03:17:46;102579.34;;;1.20;79.36
23261;BME280;11799;47.740;-3.390;2023-03-01T03:20:15;102581.03;;;1.24;79.30
23261;BME280;11799;47.740;-3.390;2023-03-01T03:22:49;102575.88;;;1.18;79.35
23261;BME280;11799;47.740;-3.390;2023-03-01T03:25:16;102566.34;;;1.19;79.10
23261;BME280;11799;47.740;-3.390;2023-03-01T03:27:43;102577.63;;;1.18;79.12
23261;BME280;11799;47.740;-3.390;2023-03-01T03:30:12;102568.16;;;1.14;78.86
23261;BME280;11799;47.740;-3.390;2023-03-01T03:32:39;102571.66;;;1.13;78.88
23261;BME280;11799;47.740;-3.390;2023-03-01T03:35:07;102565.59;;;1.11;79.23
23261;BME280;11799;47.740;-3.390;2023-03-01T03:37:40;102568.22;;;1.09;79.27
23261;BME280;11799;47.740;-3.390;2023-03-01T03:40:24;102574.31;;;1.07;78.76
23261;BME280;11799;47.740;-3.390;2023-03-01T03:42:50;102572.59;;;1.06;78.73
23261;BME280;11799;47.740;-3.390;2023-03-01T03:45:16;102564.81;;;1.03;78.94
23261;BME280;11799;47.740;-3.390;2023-03-01T03:47:43;102560.47;;;1.03;78.94
23261;BME280;11799;47.740;-3.390;2023-03-01T03:50:14;102558.81;;;0.96;78.96
23261;BME280;11799;47.740;-3.390;2023-03-01T03:52:40;102559.69;;;0.95;78.93
23261;BME280;11799;47.740;-3.390;2023-03-01T03:55:08;102555.34;;;0.95;79.09
23261;BME280;11799;47.740;-3.390;2023-03-01T03:57:40;102547.56;;;0.94;78.62
23261;BME280;11799;47.740;-3.390;2023-03-01T04:00:09;102551.00;;;0.97;78.71
23261;BME280;11799;47.740;-3.390;2023-03-01T04:02:44;102544.97;;;0.92;78.87
23261;BME280;11799;47.740;-3.390;2023-03-01T04:05:12;102544.09;;;0.93;79.16
23261;BME280;11799;47.740;-3.390;2023-03-01T04:07:38;102552.75;;;0.94;79.31
23261;BME280;11799;47.740;-3.390;2023-03-01T04:10:05;102549.34;;;0.89;79.13
23261;BME280;11799;47.740;-3.390;2023-03-01T04:12:33;102554.63;;;0.81;79.44
23261;BME280;11799;47.740;-3.390;2023-03-01T04:15:02;102556.38;;;0.79;79.71
23261;BME280;11799;47.740;-3.390;2023-03-01T04:17:39;102558.09;;;0.79;79.40
23261;BME280;11799;47.740;-3.390;2023-03-01T04:20:05;102555.50;;;0.79;79.39
23261;BME280;11799;47.740;-3.390;2023-03-01T04:22:32;102563.28;;;0.80;79.36
23261;BME280;11799;47.740;-3.390;2023-03-01T04:24:58;102559.88;;;0.75;79.56
23261;BME280;11799;47.740;-3.390;2023-03-01T04:27:27;102567.66;;;0.77;79.35
23261;BME280;11799;47.740;-3.390;2023-03-01T04:29:52;102564.25;;;0.70;79.41
23261;BME280;11799;47.740;-3.390;2023-03-01T04:32:18;102561.66;;;0.69;79.47
23261;BME280;11799;47.740;-3.390;2023-03-01T04:34:43;102559.09;;;0.64;79.38
23261;BME280;11799;47.740;-3.390;2023-03-01T04:37:09;102559.97;;;0.63;79.36
23261;BME280;11799;47.740;-3.390;2023-03-01T04:39:34;102558.28;;;0.59;79.74
23261;BME280;11799;47.740;-3.390;2023-03-01T04:42:16;102559.09;;;0.65;80.18
23261;BME280;11799;47.740;-3.390;2023-03-01T04:44:42;102558.22;;;0.65;79.86
23261;BME280;11799;47.740;-3.390;2023-03-01T04:47:08;102554.78;;;0.63;79.54
23261;BME280;11799;47.740;-3.390;2023-03-01T04:49:34;102565.22;;;0.60;79.21
23261;BME280;11799;47.740;-3.390;2023-03-01T04:52:00;102566.97;;;0.58;79.29
23261;BME280;11799;47.740;-3.390;2023-03-01T04:54:31;102561.81;;;0.56;79.29
23261;BME280;11799;47.740;-3.390;2023-03-01T04:56:58;102563.59;;;0.50;78.78
23261;BME280;11799;47.740;-3.390;2023-03-01T04:59:24;102561.00;;;0.50;78.81
23261;BME280;11799;47.740;-3.390;2023-03-01T05:01:50;102571.38;;;0.53;78.72
23261;BME280;11799;47.740;-3.390;2023-03-01T05:04:16;102563.56;;;0.54;78.70
23261;BME280;11799;47.740;-3.390;2023-03-01T05:06:42;102561.00;;;0.48;78.47
23261;BME280;11799;47.740;-3.390;2023-03-01T05:09:08;102562.69;;;0.52;78.38
23261;BME280;11799;47.740;-3.390;2023-03-01T05:11:33;102567.03;;;0.52;78.34
23261;BME280;11799;47.740;-3.390;2023-03-01T05:14:10;102570.50;;;0.52;78.41
23261;BME280;11799;47.740;-3.390;2023-03-01T05:16:36;102570.50;;;0.54;78.41
23261;BME280;11799;47.740;-3.390;2023-03-01T05:19:03;102568.75;;;0.53;78.16
23261;BME280;11799;47.740;-3.390;2023-03-01T05:21:39;102568.78;;;0.50;77.74
23261;BME280;11799;47.740;-3.390;2023-03-01T05:24:25;102568.81;;;0.47;77.58
23261;BME280;11799;47.740;-3.390;2023-03-01T05:26:51;102567.91;;;0.51;77.56
23261;BME280;11799;47.740;-3.390;2023-03-01T05:29:20;102574.00;;;0.47;77.06
23261;BME280;11799;47.740;-3.390;2023-03-01T05:32:00;102580.91;;;0.51;77.66
23261;BME280;11799;47.740;-3.390;2023-03-01T05:34:31;102581.78;;;0.50;77.50
23261;BME280;11799;47.740;-3.390;2023-03-01T05:36:58;102580.91;;;0.49;77.22
23261;BME280;11799;47.740;-3.390;2023-03-01T05:39:25;102575.78;;;0.42;76.33
23261;BME280;11799;47.740;-3.390;2023-03-01T05:41:56;102581.81;;;0.47;76.58
23261;BME280;11799;47.740;-3.390;2023-03-01T05:44:23;102571.41;;;0.47;76.78
23261;BME280;11799;47.740;-3.390;2023-03-01T05:46:49;102576.59;;;0.50;77.10
23261;BME280;11799;47.740;-3.390;2023-03-01T05:49:15;102580.06;;;0.47;76.72
23261;BME280;11799;47.740;-3.390;2023-03-01T05:51:42;102573.09;;;0.52;77.13
23261;BME280;11799;47.740;-3.390;2023-03-01T05:54:09;102569.69;;;0.44;76.21
23261;BME280;11799;47.740;-3.390;2023-03-01T05:56:35;102578.34;;;0.48;76.54
23261;BME280;11799;47.740;-3.390;2023-03-01T05:59:03;102567.06;;;0.50;75.98
23261;BME280;11799;47.740;-3.390;2023-03-01T06:01:31;102564.41;;;0.55;76.28
23261;BME280;11799;47.740;-3.390;2023-03-01T06:03:56;102563.56;;;0.54;76.09
23261;BME280;11799;47.740;-3.390;2023-03-01T06:06:23;102555.78;;;0.50;75.50
23261;BME280;11799;47.740;-3.390;2023-03-01T06:08:49;102557.50;;;0.51;74.98
23261;BME280;11799;47.740;-3.390;2023-03-01T06:11:15;102556.63;;;0.53;75.24
23261;BME280;11799;47.740;-3.390;2023-03-01T06:13:42;102554.88;;;0.54;74.87
23261;BME280;11799;47.740;-3.390;2023-03-01T06:16:09;102547.97;;;0.54;75.19
23261;BME280;11799;47.740;-3.390;2023-03-01T06:18:35;102557.50;;;0.54;74.92
23261;BME280;11799;47.740;-3.390;2023-03-01T06:21:01;102545.34;;;0.54;74.88
23261;BME280;11799;47.740;-3.390;2023-03-01T06:23:27;102547.09;;;0.54;74.80
23261;BME280;11799;47.740;-3.390;2023-03-01T06:25:52;102553.19;;;0.51;74.64
23261;BME280;11799;47.740;-3.390;2023-03-01T06:28:18;102548.84;;;0.53;74.27
23261;BME280;11799;47.740;-3.390;2023-03-01T06:30:44;102550.59;;;0.51;74.45
23261;BME280;11799;47.740;-3.390;2023-03-01T06:33:09;102556.66;;;0.50;74.44
23261;BME280;11799;47.740;-3.390;2023-03-01T06:35:35;102549.69;;;0.54;74.78
23261;BME280;11799;47.740;-3.390;2023-03-01T06:38:03;102551.34;;;0.58;74.66
23261;BME280;11799;47.740;-3.390;2023-03-01T06:40:29;102557.50;;;0.52;74.35
23261;BME280;11799;47.740;-3.390;2023-03-01T06:42:57;102559.25;;;0.52;73.85
23261;BME280;11799;47.740;-3.390;2023-03-01T06:45:23;102560.09;;;0.54;73.79
23261;BME280;11799;47.740;-3.390;2023-03-01T06:47:50;102554.88;;;0.54;74.38
23261;BME280;11799;47.740;-3.390;2023-03-01T06:50:16;102569.63;;;0.55;73.63
23261;BME280;11799;47.740;-3.390;2023-03-01T06:52:42;102571.31;;;0.57;73.64
23261;BME280;11799;47.740;-3.390;2023-03-01T06:55:11;102563.47;;;0.59;73.52
23261;BME280;11799;47.740;-3.390;2023-03-01T06:57:37;102573.06;;;0.57;73.56
23261;BME280;11799;47.740;-3.390;2023-03-01T07:00:05;102581.66;;;0.60;73.01
23261;BME280;11799;47.740;-3.390;2023-03-01T07:02:31;102569.56;;;0.58;73.30
23261;BME280;11799;47.740;-3.390;2023-03-01T07:04:56;102570.41;;;0.60;72.93
23261;BME280;11799;47.740;-3.390;2023-03-01T07:07:22;102571.31;;;0.57;73.23
23261;BME280;11799;47.740;-3.390;2023-03-01T07:09:49;102579.91;;;0.62;73.57
23261;BME280;11799;47.740;-3.390;2023-03-01T07:12:15;102577.31;;;0.61;72.92
23261;BME280;11799;47.740;-3.390;2023-03-01T07:14:40;102567.81;;;0.58;72.69
23261;BME280;11799;47.740;-3.390;2023-03-01T07:17:06;102579.03;;;0.65;73.24
23261;BME280;11799;47.740;-3.390;2023-03-01T07:19:32;102578.13;;;0.69;73.32
23261;BME280;11799;47.740;-3.390;2023-03-01T07:21:57;102584.19;;;0.68;73.17
23261;BME280;11799;47.740;-3.390;2023-03-01T07:24:23;102572.91;;;0.71;72.99
23261;BME280;11799;47.740;-3.390;2023-03-01T07:26:51;102583.31;;;0.71;72.81
23261;BME280;11799;47.740;-3.390;2023-03-01T07:29:17;102578.97;;;0.73;72.02
23261;BME280;11799;47.740;-3.390;2023-03-01T07:31:43;102578.94;;;0.76;71.98
23261;BME280;11799;47.740;-3.390;2023-03-01T07:34:09;102578.94;;;0.76;71.97
23261;BME280;11799;47.740;-3.390;2023-03-01T07:36:36;102582.34;;;0.82;72.27
23261;BME280;11799;47.740;-3.390;2023-03-01T07:39:02;102580.59;;;0.83;72.08
23261;BME280;11799;47.740;-3.390;2023-03-01T07:41:28;102584.03;;;0.88;72.68
23261;BME280;11799;47.740;-3.390;2023-03-01T07:43:54;102582.28;;;0.88;72.04
23261;BME280;11799;47.740;-3.390;2023-03-01T07:46:20;102588.34;;;0.89;71.13
23261;BME280;11799;47.740;-3.390;2023-03-01T07:48:45;102578.81;;;0.91;71.38
23261;BME280;11799;47.740;-3.390;2023-03-01T07:51:11;102586.56;;;0.94;71.18
23261;BME280;11799;47.740;-3.390;2023-03-01T07:53:37;102583.09;;;0.96;70.81
23261;BME280;11799;47.740;-3.390;2023-03-01T07:56:09;102584.78;;;0.99;70.49
23261;BME280;11799;47.740;-3.390;2023-03-01T07:58:37;102582.97;;;1.07;70.65
23261;BME280;11799;47.740;-3.390;2023-03-01T08:01:04;102582.09;;;1.10;70.14
23261;BME280;11799;47.740;-3.390;2023-03-01T08:03:30;102582.91;;;1.13;70.67
23261;BME280;11799;47.740;-3.390;2023-03-01T08:05:55;102582.81;;;1.19;70.09
23261;BME280;11799;47.740;-3.390;2023-03-01T08:08:21;102583.63;;;1.26;69.60
23261;BME280;11799;47.740;-3.390;2023-03-01T08:10:46;102576.53;;;1.39;69.95
23261;BME280;11799;47.740;-3.390;2023-03-01T08:13:12;102579.84;;;1.53;68.56
23261;BME280;11799;47.740;-3.390;2023-03-01T08:15:38;102581.97;;;1.86;68.67
23261;BME280;11799;47.740;-3.390;2023-03-01T08:18:03;102582.34;;;2.23;68.14
23261;BME280;11799;47.740;-3.390;2023-03-01T08:20:29;102576.31;;;2.72;67.07
23261;BME280;11799;47.740;-3.390;2023-03-01T08:22:54;102582.41;;;3.19;67.30
23261;BME280;11799;47.740;-3.390;2023-03-01T08:25:20;102571.03;;;3.63;65.37
23261;BME280;11799;47.740;-3.390;2023-03-01T08:27:45;102570.72;;;3.78;64.39
23261;BME280;11799;47.740;-3.390;2023-03-01T08:30:11;102576.03;;;3.74;62.68
23261;BME280;11799;47.740;-3.390;2023-03-01T08:32:38;102564.84;;;3.69;61.32
23261;BME280;11799;47.740;-3.390;2023-03-01T08:35:04;102570.97;;;3.66;62.27
23261;BME280;11799;47.740;-3.390;2023-03-01T08:37:30;102575.50;;;3.58;60.75
23261;BME280;11799;47.740;-3.390;2023-03-01T08:39:58;102566.06;;;3.51;61.76
23261;BME280;11799;47.740;-3.390;2023-03-01T08:42:24;102570.59;;;3.44;60.83
23261;BME280;11799;47.740;-3.390;2023-03-01T08:44:49;102571.22;;;3.54;62.24
23261;BME280;11799;47.740;-3.390;2023-03-01T08:47:15;102569.19;;;3.68;62.51
23261;BME280;11799;47.740;-3.390;2023-03-01T08:49:40;102573.38;;;3.77;62.91
23261;BME280;11799;47.740;-3.390;2023-03-01T08:52:06;102562.75;;;3.84;62.57
23261;BME280;11799;47.740;-3.390;2023-03-01T08:54:31;102566.94;;;3.91;61.86
23261;BME280;11799;47.740;-3.390;2023-03-01T08:56:57;102568.59;;;3.95;60.88
23261;BME280;11799;47.740;-3.390;2023-03-01T08:59:25;102562.25;;;4.06;62.62
23261;BME280;11799;47.740;-3.390;2023-03-01T09:01:50;102564.72;;;4.12;60.16
23261;BME280;11799;47.740;-3.390;2023-03-01T09:04:16;102564.59;;;4.16;60.81
23261;BME280;11799;47.740;-3.390;2023-03-01T09:06:42;102566.16;;;4.25;61.32
23261;BME280;11799;47.740;-3.390;2023-03-01T09:09:13;102558.03;;;4.37;60.25
23261;BME280;11799;47.740;-3.390;2023-03-01T09:11:40;102555.06;;;4.51;59.42
23261;BME280;11799;47.740;-3.390;2023-03-01T09:14:06;102544.94;;;4.71;58.13
23261;BME280;11799;47.740;-3.390;2023-03-01T09:16:32;102552.84;;;5.02;57.57
23261;BME280;11799;47.740;-3.390;2023-03-01T09:19:01;102542.13;;;5.11;56.93
23261;BME280;11799;47.740;-3.390;2023-03-01T09:21:27;102545.88;;;5.01;57.54
23261;BME280;11799;47.740;-3.390;2023-03-01T09:23:53;102534.50;;;5.02;55.74
23261;BME280;11799;47.740;-3.390;2023-03-01T09:26:21;102531.16;;;4.97;55.41
23261;BME280;11799;47.740;-3.390;2023-03-01T09:28:50;102532.88;;;4.98;54.90
23261;BME280;11799;47.740;-3.390;2023-03-01T09:31:17;102527.63;;;4.98;54.55
23261;BME280;11799;47.740;-3.390;2023-03-01T09:33:46;102535.50;;;4.98;53.78
23261;BME280;11799;47.740;-3.390;2023-03-01T09:36:16;102522.41;;;4.98;53.38
23261;BME280;11799;47.740;-3.390;2023-03-01T09:38:42;102526.66;;;5.02;54.89
23261;BME280;11799;47.740;-3.390;2023-03-01T09:44:34;102519.66;;;5.03;52.01
23261;BME280;11799;47.740;-3.390;2023-03-01T09:47:03;102509.09;;;5.06;52.53
23261;BME280;11799;47.740;-3.390;2023-03-01T09:49:33;102511.63;;;5.09;52.66
23261;BME280;11799;47.740;-3.390;2023-03-01T09:52:23;102515.03;;;5.12;51.83
23261;BME280;11799;47.740;-3.390;2023-03-01T09:54:54;102509.66;;;5.17;52.01
23261;BME280;11799;47.740;-3.390;2023-03-01T09:57:30;102515.81;;;5.16;49.91
23261;BME280;11799;47.740;-3.390;2023-03-01T10:00:22;102498.28;;;5.18;50.37
23261;BME280;11799;47.740;-3.390;2023-03-01T10:10:43;102499.44;;;5.37;49.70
23261;BME280;11799;47.740;-3.390;2023-03-01T10:13:23;102493.13;;;5.44;50.50
23261;BME280;11799;47.740;-3.390;2023-03-01T10:19:03;102498.75;;;5.60;50.65
23261;BME280;11799;47.740;-3.390;2023-03-01T10:21:31;102493.34;;;5.66;50.87
23261;BME280;11799;47.740;-3.390;2023-03-01T10:24:18;102488.75;;;5.73;50.35
23261;BME280;11799;47.740;-3.390;2023-03-01T10:26:57;102487.53;;;5.83;49.20
23261;BME280;11799;47.740;-3.390;2023-03-01T10:29:33;102481.25;;;5.88;48.60
23261;BME280;11799;47.740;-3.390;2023-03-01T10:32:00;102476.00;;;5.88;49.19
23261;BME280;11799;47.740;-3.390;2023-03-01T10:34:31;102476.69;;;5.95;50.64
23261;BME280;11799;47.740;-3.390;2023-03-01T10:37:07;102483.56;;;5.99;48.76
23261;BME280;11799;47.740;-3.390;2023-03-01T10:39:34;102482.59;;;6.02;48.62
23261;BME280;11799;47.740;-3.390;2023-03-01T10:42:07;102471.16;;;6.04;49.34
23261;BME280;11799;47.740;-3.390;2023-03-01T10:44:46;102474.34;;;6.14;48.55
23261;BME280;11799;47.740;-3.390;2023-03-01T10:47:38;102478.69;;;6.15;46.64
23261;BME280;11799;47.740;-3.390;2023-03-01T10:50:06;102473.13;;;6.24;46.87
23261;BME280;11799;47.740;-3.390;2023-03-01T10:52:40;102478.69;;;6.40;47.76
23261;BME280;11799;47.740;-3.390;2023-03-01T10:57:39;102469.94;;;6.66;47.56
23261;BME280;11799;47.740;-3.390;2023-03-01T11:00:33;102467.84;;;6.75;46.17
23261;BME280;11799;47.740;-3.390;2023-03-01T11:03:12;102466.25;;;6.94;46.74
23261;BME280;11799;47.740;-3.390;2023-03-01T11:08:35;102467.78;;;7.23;46.16
23261;BME280;11799;47.740;-3.390;2023-03-01T11:13:55;102452.84;;;7.25;45.81
23261;BME280;11799;47.740;-3.390;2023-03-01T11:19:00;102446.53;;;7.29;47.27
23261;BME280;11799;47.740;-3.390;2023-03-01T11:21:32;102441.41;;;7.26;46.95
23261;BME280;11799;47.740;-3.390;2023-03-01T11:24:00;102451.97;;;7.25;46.61
23261;BME280;11799;47.740;-3.390;2023-03-01T11:26:28;102440.78;;;7.20;46.20
23261;BME280;11799;47.740;-3.390;2023-03-01T11:28:57;102431.06;;;7.22;47.72
23261;BME280;11799;47.740;-3.390;2023-03-01T11:31:24;102440.16;;;7.13;46.95
23261;BME280;11799;47.740;-3.390;2023-03-01T11:33:53;102440.25;;;7.10;46.33
23261;BME280;11799;47.740;-3.390;2023-03-01T11:36:31;102436.09;;;7.05;47.34
23261;BME280;11799;47.740;-3.390;2023-03-01T11:39:26;102425.00;;;6.96;46.55
23261;BME280;11799;47.740;-3.390;2023-03-01T11:42:03;102422.38;;;6.96;48.94
23261;BME280;11799;47.740;-3.390;2023-03-01T11:44:33;102424.84;;;7.01;47.23
23261;BME280;11799;47.740;-3.390;2023-03-01T11:47:21;102414.28;;;7.03;47.59
23261;BME280;11799;47.740;-3.390;2023-03-01T11:52:35;102404.00;;;7.20;47.52
23261;BME280;11799;47.740;-3.390;2023-03-01T12:03:41;102382.69;;;7.27;48.42
23261;BME280;11799;47.740;-3.390;2023-03-01T12:12:05;102379.91;;;7.52;48.25
23261;BME280;11799;47.740;-3.390;2023-03-01T12:14:39;102374.47;;;7.57;48.17
23261;BME280;11799;47.740;-3.390;2023-03-01T12:20:11;102367.13;;;7.65;49.04
23261;BME280;11799;47.740;-3.390;2023-03-01T12:26:09;102361.84;;;7.87;47.97
23261;BME280;11799;47.740;-3.390;2023-03-01T12:45:39;102312.75;;;8.47;50.13
23261;BME280;11799;47.740;-3.390;2023-03-01T12:50:57;102317.16;;;8.46;49.50
23261;BME280;11799;47.740;-3.390;2023-03-01T12:53:26;102320.78;;;8.44;49.44
23261;BME280;11799;47.740;-3.390;2023-03-01T12:55:54;102315.50;;;8.44;49.53
23261;BME280;11799;47.740;-3.390;2023-03-01T12:58:29;102310.97;;;8.47;50.05
23261;BME280;11799;47.740;-3.390;2023-03-01T13:06:08;102285.78;;;8.42;49.87
23261;BME280;11799;47.740;-3.390;2023-03-01T13:09:03;102296.09;;;8.46;48.74
23261;BME280;11799;47.740;-3.390;2023-03-01T13:11:32;102283.66;;;8.50;48.05
23261;BME280;11799;47.740;-3.390;2023-03-01T13:14:35;102279.22;;;8.50;47.86
23261;BME280;11799;47.740;-3.390;2023-03-01T13:17:01;102274.88;;;8.49;48.60
23261;BME280;11799;47.740;-3.390;2023-03-01T13:19:28;102276.66;;;8.49;48.88
23261;BME280;11799;47.740;-3.390;2023-03-01T13:22:28;102278.31;;;8.51;48.21
23261;BME280;11799;47.740;-3.390;2023-03-01T13:25:11;102270.47;;;8.50;47.55
23261;BME280;11799;47.740;-3.390;2023-03-01T13:27:38;102262.66;;;8.48;47.55
23261;BME280;11799;47.740;-3.390;2023-03-01T13:30:12;102259.81;;;8.53;48.65
23261;BME280;11799;47.740;-3.390;2023-03-01T13:32:50;102255.25;;;8.56;49.04
23261;BME280;11799;47.740;-3.390;2023-03-01T13:37:44;102250.91;;;8.55;48.84
23261;BME280;11799;47.740;-3.390;2023-03-01T13:42:46;102229.63;;;8.60;49.97
23261;BME280;11799;47.740;-3.390;2023-03-01T13:47:57;102242.03;;;8.58;48.87
23261;BME280;11799;47.740;-3.390;2023-03-01T13:50:38;102235.19;;;8.54;48.60
23261;BME280;11799;47.740;-3.390;2023-03-01T13:53:13;102231.63;;;8.55;49.05
23261;BME280;11799;47.740;-3.390;2023-03-01T13:55:45;102224.78;;;8.51;48.92
23261;BME280;11799;47.740;-3.390;2023-03-01T14:01:03;102227.34;;;8.52;49.99
23261;BME280;11799;47.740;-3.390;2023-03-01T14:03:30;102222.03;;;8.54;49.94
23261;BME280;11799;47.740;-3.390;2023-03-01T14:06:18;102211.63;;;8.51;49.44
23261;BME280;11799;47.740;-3.390;2023-03-01T14:08:46;102216.03;;;8.50;50.72
23261;BME280;11799;47.740;-3.390;2023-03-01T14:21:27;102190.16;;;8.41;48.87
23261;BME280;11799;47.740;-3.390;2023-03-01T14:23:54;102186.81;;;8.38;49.80
23261;BME280;11799;47.740;-3.390;2023-03-01T14:26:21;102171.72;;;8.41;49.38
23261;BME280;11799;47.740;-3.390;2023-03-01T14:28:48;102165.75;;;8.38;50.60
23261;BME280;11799;47.740;-3.390;2023-03-01T14:31:31;102171.72;;;8.41;49.41
23261;BME280;11799;47.740;-3.390;2023-03-01T14:33:58;102172.50;;;8.43;50.77
23261;BME280;11799;47.740;-3.390;2023-03-01T14:36:30;102161.13;;;8.43;48.56
23261;BME280;11799;47.740;-3.390;2023-03-01T14:38:56;102167.94;;;8.47;50.09
23261;BME280;11799;47.740;-3.390;2023-03-01T14:41:33;102168.66;;;8.50;50.41
23261;BME280;11799;47.740;-3.390;2023-03-01T14:44:05;102169.38;;;8.54;50.34